createdAt,value
2023-04-24T00:00:57.576Z,13.25
2023-04-24T00:03:31.185Z,13.15
2023-04-24T00:06:00.144Z,13.09
2023-04-24T00:08:29.152Z,13.06
2023-04-24T00:10:57.979Z,13.03
2023-04-24T00:13:26.931Z,12.95
2023-04-24T00:15:55.585Z,12.85
2023-04-24T00:18:24.779Z,12.83
2023-04-24T00:20:54.906Z,12.77
2023-04-24T00:23:23.843Z,12.74
2023-04-24T00:25:52.436Z,12.71
2023-04-24T00:28:21.396Z,12.68
2023-04-24T00:30:50.187Z,12.72
2023-04-24T00:33:19.168Z,12.64
2023-04-24T00:35:47.833Z,12.58
2023-04-24T00:38:18.164Z,12.48
2023-04-24T00:40:48.548Z,12.44
2023-04-24T00:43:17.910Z,12.45
2023-04-24T00:45:46.670Z,12.46
2023-04-24T00:48:16.841Z,12.51
2023-04-24T00:50:45.720Z,12.54
2023-04-24T00:53:18.194Z,12.53
2023-04-24T00:55:47.645Z,12.56
2023-04-24T00:58:17.026Z,12.57
2023-04-24T01:00:47.248Z,12.56
2023-04-24T01:03:17.243Z,12.51
2023-04-24T01:05:46.418Z,12.49
2023-04-24T01:08:17.715Z,12.48
2023-04-24T01:10:48.705Z,12.48
2023-04-24T01:13:17.781Z,12.39
2023-04-24T01:15:47.729Z,12.30
2023-04-24T01:18:17.882Z,12.23
2023-04-24T01:20:49.125Z,12.17
2023-04-24T01:23:19.739Z,12.12
2023-04-24T01:25:48.694Z,12.12
2023-04-24T01:28:18.231Z,12.16
2023-04-24T01:30:47.492Z,12.17
2023-04-24T01:33:16.687Z,12.16
2023-04-24T01:35:45.650Z,12.14
2023-04-24T01:38:14.772Z,12.12
2023-04-24T01:40:45.233Z,12.10
2023-04-24T01:43:15.264Z,12.08
2023-04-24T01:45:43.978Z,12.08
2023-04-24T01:48:15.053Z,12.00
2023-04-24T01:50:44.139Z,11.98
2023-04-24T01:53:14.638Z,11.96
2023-04-24T01:55:45.916Z,11.93
2023-04-24T01:58:16.250Z,11.84
2023-04-24T02:00:45.006Z,11.78
2023-04-24T02:03:14.172Z,11.74
2023-04-24T02:05:45.936Z,11.74
2023-04-24T02:08:14.987Z,11.81
2023-04-24T02:10:45.267Z,11.90
2023-04-24T02:13:14.456Z,11.94
2023-04-24T02:15:43.153Z,12.00
2023-04-24T02:18:13.819Z,12.07
2023-04-24T02:20:42.523Z,12.01
2023-04-24T02:23:11.405Z,11.90
2023-04-24T02:25:40.955Z,11.86
2023-04-24T02:28:11.357Z,11.83
2023-04-24T02:30:40.284Z,11.83
2023-04-24T02:33:09.337Z,11.83
2023-04-24T02:35:38.318Z,11.80
2023-04-24T02:38:07.464Z,11.75
2023-04-24T02:40:36.172Z,11.72
2023-04-24T02:43:05.457Z,11.65
2023-04-24T02:45:35.814Z,11.61
2023-04-24T02:48:05.122Z,11.59
2023-04-24T02:50:34.651Z,11.57
2023-04-24T02:53:03.623Z,11.55
2023-04-24T02:55:32.411Z,11.54
2023-04-24T02:58:01.307Z,11.48
2023-04-24T03:00:29.991Z,11.47
2023-04-24T03:03:01.049Z,11.37
2023-04-24T03:05:30.030Z,11.33
2023-04-24T03:07:59.165Z,11.30
2023-04-24T03:10:27.904Z,11.29
2023-04-24T03:12:56.921Z,11.23
2023-04-24T03:15:25.569Z,11.19
2023-04-24T03:17:56.656Z,11.20
2023-04-24T03:20:27.367Z,11.23
2023-04-24T03:22:58.741Z,11.25
2023-04-24T03:25:28.094Z,11.28
2023-04-24T03:27:57.613Z,11.30
2023-04-24T03:30:41.337Z,11.32
2023-04-24T03:33:11.320Z,11.39
2023-04-24T03:35:48.440Z,11.44
2023-04-24T03:38:17.493Z,11.49
2023-04-24T03:41:02.966Z,11.55
2023-04-24T03:43:46.019Z,11.66
2023-04-24T03:46:15.219Z,11.69
2023-04-24T03:48:49.993Z,11.73
2023-04-24T03:51:23.266Z,11.78
2023-04-24T03:53:56.001Z,11.80
2023-04-24T03:56:26.899Z,11.83
2023-04-24T03:58:56.381Z,11.88
2023-04-24T04:01:25.578Z,11.97
2023-04-24T04:04:01.119Z,12.02
2023-04-24T04:06:33.094Z,12.08
2023-04-24T04:09:04.183Z,12.12
2023-04-24T04:11:33.130Z,12.15
2023-04-24T04:14:02.135Z,12.21
2023-04-24T04:16:31.276Z,12.24
2023-04-24T04:19:05.201Z,12.33
2023-04-24T04:21:35.293Z,12.42
2023-04-24T04:24:23.560Z,12.50
2023-04-24T04:26:53.320Z,12.61
2023-04-24T04:29:29.775Z,12.71
2023-04-24T04:31:59.241Z,12.81
2023-04-24T04:34:29.994Z,12.90
2023-04-24T04:37:02.095Z,13.01
2023-04-24T04:39:57.235Z,13.14
2023-04-24T04:42:29.465Z,13.21
2023-04-24T04:44:59.280Z,13.39
2023-04-24T04:47:38.118Z,13.43
2023-04-24T04:50:08.596Z,13.50
2023-04-24T04:52:38.755Z,13.44
2023-04-24T04:55:19.344Z,13.54
2023-04-24T04:58:23.635Z,13.65
2023-04-24T05:00:58.403Z,13.77
2023-04-24T05:03:31.714Z,13.92
2023-04-24T05:06:06.978Z,13.96
2023-04-24T05:08:40.074Z,14.12
2023-04-24T05:11:12.534Z,14.28
2023-04-24T05:13:42.338Z,14.37
2023-04-24T05:16:16.613Z,14.48
2023-04-24T05:18:45.766Z,14.44
2023-04-24T05:21:17.843Z,14.52
2023-04-24T05:23:52.526Z,14.68
2023-04-24T05:26:41.553Z,14.74
2023-04-24T05:29:11.459Z,14.92
2023-04-24T05:31:40.475Z,15.08
2023-04-24T05:34:09.181Z,15.20
2023-04-24T05:36:42.208Z,15.38
2023-04-24T05:39:12.737Z,15.51
2023-04-24T05:41:41.720Z,15.51
2023-04-24T05:44:10.423Z,15.50
2023-04-24T05:46:39.580Z,15.67
2023-04-24T05:49:08.227Z,15.90
2023-04-24T05:51:37.881Z,16.04
2023-04-24T05:54:06.791Z,16.26
2023-04-24T05:56:37.306Z,16.47
2023-04-24T05:59:08.468Z,16.61
2023-04-24T06:01:38.142Z,16.68
2023-04-24T06:04:17.770Z,16.96
2023-04-24T06:06:47.006Z,17.24
2023-04-24T06:09:15.986Z,17.43
2023-04-24T06:11:46.764Z,17.70
2023-04-24T06:14:16.815Z,17.89
2023-04-24T06:17:15.718Z,18.09
2023-04-24T06:19:44.887Z,18.30
2023-04-24T06:22:14.104Z,18.56
2023-04-24T06:24:43.733Z,18.76
2023-04-24T06:27:15.291Z,18.97
2023-04-24T06:29:45.021Z,18.85
2023-04-24T06:32:14.345Z,18.97
2023-04-24T06:34:43.411Z,19.15
2023-04-24T06:37:12.662Z,19.36
2023-04-24T06:39:41.459Z,19.54
2023-04-24T06:42:10.719Z,19.53
2023-04-24T06:44:42.651Z,19.57
2023-04-24T06:47:14.766Z,19.64
2023-04-24T06:49:44.040Z,19.49
2023-04-24T06:52:13.348Z,19.64
2023-04-24T06:54:43.981Z,19.76
2023-04-24T06:57:13.217Z,19.86
2023-04-24T06:59:43.476Z,20.09
2023-04-24T07:02:12.812Z,20.44
2023-04-24T07:04:42.876Z,20.77
2023-04-24T07:07:15.172Z,20.75
2023-04-24T07:09:45.659Z,20.49
2023-04-24T07:12:14.872Z,20.19
2023-04-24T07:14:44.979Z,20.10
2023-04-24T07:17:14.339Z,19.86
2023-04-24T07:19:43.891Z,19.87
2023-04-24T07:22:17.859Z,19.86
2023-04-24T07:24:47.073Z,19.94
2023-04-24T07:27:16.416Z,20.10
2023-04-24T07:29:47.019Z,20.25
2023-04-24T07:32:16.258Z,20.27
2023-04-24T07:34:45.034Z,20.43
2023-04-24T07:37:14.206Z,20.38
2023-04-24T07:39:43.796Z,20.71
2023-04-24T07:42:12.950Z,20.92
2023-04-24T07:44:41.625Z,20.81
2023-04-24T07:47:12.110Z,21.15
2023-04-24T07:49:41.161Z,21.49
2023-04-24T07:52:10.361Z,21.59
2023-04-24T07:54:39.322Z,21.95
2023-04-24T07:57:09.296Z,21.93
2023-04-24T07:59:38.115Z,21.95
2023-04-24T08:02:12.077Z,21.70
2023-04-24T08:04:40.926Z,21.84
2023-04-24T08:07:10.204Z,21.92
2023-04-24T08:09:38.974Z,22.12
2023-04-24T08:12:08.331Z,22.20
2023-04-24T08:14:37.081Z,22.12
2023-04-24T08:17:06.099Z,22.01
2023-04-24T08:19:36.182Z,21.89
2023-04-24T08:22:05.346Z,21.90
2023-04-24T08:24:34.073Z,22.01
2023-04-24T08:27:03.210Z,22.09
2023-04-24T08:29:32.108Z,21.99
2023-04-24T08:32:01.225Z,21.83
2023-04-24T08:34:29.966Z,21.47
2023-04-24T08:37:00.646Z,21.48
2023-04-24T08:39:29.482Z,21.37
2023-04-24T08:41:58.799Z,21.34
2023-04-24T08:44:27.688Z,21.22
2023-04-24T08:46:56.834Z,21.32
2023-04-24T08:49:29.104Z,21.47
2023-04-24T08:52:00.793Z,21.43
2023-04-24T08:54:30.692Z,21.49
2023-04-24T08:57:04.565Z,21.65
2023-04-24T08:59:34.416Z,21.72
2023-04-24T09:02:05.993Z,21.89
2023-04-24T09:04:36.866Z,22.21
2023-04-24T09:07:12.270Z,22.36
2023-04-24T09:09:43.013Z,22.41
2023-04-24T09:12:12.695Z,22.47
2023-04-24T09:14:45.909Z,22.46
2023-04-24T09:17:15.414Z,22.29
2023-04-24T09:19:44.281Z,22.49
2023-04-24T09:22:14.912Z,22.75
2023-04-24T09:24:43.750Z,23.52
2023-04-24T09:27:15.776Z,24.32
2023-04-24T09:29:56.927Z,24.57
2023-04-24T09:32:29.860Z,24.47
2023-04-24T09:35:11.084Z,24.44
2023-04-24T09:37:44.748Z,25.14
2023-04-24T09:40:18.977Z,25.78
2023-04-24T09:42:53.737Z,26.44
2023-04-24T09:45:23.120Z,26.83
2023-04-24T09:47:56.140Z,26.36
2023-04-24T09:50:25.246Z,26.04
2023-04-24T09:53:06.016Z,25.68
2023-04-24T09:55:41.001Z,25.64
2023-04-24T09:58:16.145Z,26.01
2023-04-24T10:00:45.059Z,26.46
2023-04-24T10:03:15.790Z,26.38
2023-04-24T10:05:44.779Z,25.91
2023-04-24T10:08:22.617Z,25.58
2023-04-24T10:10:51.268Z,25.78
2023-04-24T10:13:20.586Z,26.28
2023-04-24T10:15:52.123Z,26.61
2023-04-24T10:18:27.344Z,27.32
2023-04-24T10:21:04.438Z,28.06
2023-04-24T10:23:38.631Z,28.73
2023-04-24T10:26:08.032Z,28.93
2023-04-24T10:28:39.466Z,29.34
2023-04-24T10:31:22.218Z,29.29
2023-04-24T10:33:56.508Z,29.30
2023-04-24T10:36:27.898Z,29.14
2023-04-24T10:39:05.774Z,29.13
2023-04-24T10:41:39.006Z,28.35
2023-04-24T10:44:08.739Z,27.58
2023-04-24T10:46:38.229Z,27.41
2023-04-24T10:49:10.764Z,27.12
2023-04-24T10:51:52.123Z,27.03
2023-04-24T10:54:30.972Z,26.89
2023-04-24T10:57:32.113Z,26.96
2023-04-24T11:00:22.134Z,27.39
2023-04-24T11:02:53.702Z,27.87
2023-04-24T11:05:24.330Z,27.81
2023-04-24T11:08:23.463Z,28.24
2023-04-24T11:11:01.528Z,27.94
2023-04-24T11:14:07.650Z,28.20
2023-04-24T11:16:45.917Z,27.56
2023-04-24T11:19:25.899Z,27.71
2023-04-24T11:22:04.139Z,27.84
2023-04-24T11:24:41.927Z,27.56
2023-04-24T11:27:22.839Z,27.33
2023-04-24T11:30:02.843Z,27.85
2023-04-24T11:32:40.503Z,28.51
2023-04-24T11:35:15.965Z,28.80
2023-04-24T11:38:08.111Z,28.39
2023-04-24T11:40:37.428Z,28.41
2023-04-24T11:43:10.625Z,28.15
2023-04-24T11:45:39.366Z,27.27
2023-04-24T11:48:08.375Z,27.10
2023-04-24T11:50:37.452Z,27.14
2023-04-24T11:53:06.883Z,26.96
2023-04-24T11:55:36.348Z,26.53
2023-04-24T11:58:07.826Z,26.44
2023-04-24T12:00:36.897Z,25.96
2023-04-24T12:03:09.126Z,25.72
2023-04-24T12:05:38.473Z,25.52
2023-04-24T12:08:08.178Z,25.33
2023-04-24T12:10:37.617Z,25.05
2023-04-24T12:13:11.383Z,24.83
2023-04-24T12:15:42.756Z,24.49
2023-04-24T12:18:14.851Z,24.32
2023-04-24T12:20:43.968Z,24.09
2023-04-24T12:23:13.208Z,23.98
2023-04-24T12:25:42.808Z,23.96
2023-04-24T12:28:15.237Z,23.72
2023-04-24T12:30:47.142Z,23.49
2023-04-24T12:33:20.590Z,23.37
2023-04-24T12:35:50.983Z,23.37
2023-04-24T12:38:25.832Z,23.04
2023-04-24T12:41:06.250Z,22.01
2023-04-24T12:43:37.731Z,21.57
2023-04-24T12:46:07.151Z,21.55
2023-04-24T12:48:36.301Z,21.37
2023-04-24T12:51:05.535Z,20.98
2023-04-24T12:53:34.562Z,21.11
2023-04-24T12:56:03.241Z,20.68
2023-04-24T12:58:32.155Z,20.92
2023-04-24T13:01:02.858Z,20.96
2023-04-24T13:03:31.935Z,21.04
2023-04-24T13:06:00.679Z,20.95
2023-04-24T13:08:29.597Z,21.24
2023-04-24T13:10:58.352Z,21.44
2023-04-24T13:13:27.591Z,21.66
2023-04-24T13:15:56.394Z,21.44
2023-04-24T13:18:27.156Z,21.47
2023-04-24T13:20:55.961Z,21.55
2023-04-24T13:23:24.938Z,21.59
2023-04-24T13:25:56.392Z,21.60
2023-04-24T13:28:25.721Z,21.69
2023-04-24T13:30:54.531Z,21.73
2023-04-24T13:33:23.493Z,21.79
2023-04-24T13:35:53.524Z,21.94
2023-04-24T13:38:23.625Z,22.11
2023-04-24T13:40:52.424Z,22.53
2023-04-24T13:43:21.375Z,22.94
2023-04-24T13:45:50.357Z,22.98
2023-04-24T13:48:19.399Z,23.40
2023-04-24T13:50:49.370Z,23.35
2023-04-24T13:53:19.866Z,23.50
2023-04-24T13:55:48.676Z,23.34
2023-04-24T13:58:17.667Z,23.41
2023-04-24T14:00:46.617Z,23.47
2023-04-24T14:03:15.728Z,23.33
2023-04-24T14:05:44.512Z,23.20
2023-04-24T14:08:13.496Z,22.93
2023-04-24T14:10:44.740Z,22.67
2023-04-24T14:13:14.074Z,22.69
2023-04-24T14:15:42.868Z,22.74
2023-04-24T14:18:11.940Z,22.86
2023-04-24T14:20:41.119Z,22.70
2023-04-24T14:23:10.058Z,22.62
2023-04-24T14:25:38.923Z,22.76
2023-04-24T14:28:09.707Z,22.92
2023-04-24T14:30:41.638Z,22.98
2023-04-24T14:33:10.594Z,23.02
2023-04-24T14:35:39.380Z,23.02
2023-04-24T14:38:08.328Z,23.13
2023-04-24T14:41:02.699Z,23.28
2023-04-24T14:43:27.590Z,23.42
2023-04-24T14:45:56.260Z,23.46
2023-04-24T14:48:25.190Z,23.53
2023-04-24T14:50:53.903Z,23.52
2023-04-24T14:53:23.044Z,23.49
2023-04-24T14:55:51.848Z,23.50
2023-04-24T14:58:21.066Z,23.46
2023-04-24T15:00:53.004Z,23.41
2023-04-24T15:03:22.849Z,23.34
2023-04-24T15:05:52.757Z,23.33
2023-04-24T15:08:21.805Z,23.21
2023-04-24T15:10:50.906Z,23.17
2023-04-24T15:13:19.933Z,23.20
2023-04-24T15:15:50.619Z,23.22
2023-04-24T15:18:19.699Z,23.17
2023-04-24T15:20:48.383Z,23.14
2023-04-24T15:23:17.294Z,23.09
2023-04-24T15:25:46.022Z,23.08
2023-04-24T15:28:14.955Z,23.07
2023-04-24T15:30:43.802Z,22.98
2023-04-24T15:33:14.241Z,22.83
2023-04-24T15:35:42.954Z,22.78
2023-04-24T15:38:11.995Z,22.78
2023-04-24T15:40:40.665Z,22.66
2023-04-24T15:43:09.554Z,22.58
2023-04-24T15:45:38.455Z,22.48
2023-04-24T15:48:07.597Z,22.41
2023-04-24T15:50:37.701Z,22.33
2023-04-24T15:53:08.107Z,22.23
2023-04-24T15:55:37.369Z,22.12
2023-04-24T15:58:06.812Z,22.04
2023-04-24T16:00:35.585Z,21.93
2023-04-24T16:03:06.940Z,21.83
2023-04-24T16:05:38.613Z,21.74
2023-04-24T16:08:07.956Z,21.67
2023-04-24T16:10:38.341Z,21.60
2023-04-24T16:13:07.352Z,21.50
2023-04-24T16:15:36.465Z,21.42
2023-04-24T16:18:06.093Z,21.40
2023-04-24T16:20:35.073Z,21.36
2023-04-24T16:23:05.827Z,21.33
2023-04-24T16:25:34.677Z,21.29
2023-04-24T16:28:03.872Z,21.24
2023-04-24T16:30:32.794Z,21.20
2023-04-24T16:33:05.690Z,21.15
2023-04-24T16:35:34.515Z,21.09
2023-04-24T16:38:05.319Z,21.08
2023-04-24T16:40:34.177Z,21.04
2023-04-24T16:43:03.267Z,21.03
2023-04-24T16:45:32.172Z,20.98
2023-04-24T16:48:03.638Z,20.94
2023-04-24T16:50:32.843Z,20.88
2023-04-24T16:53:01.989Z,20.86
2023-04-24T16:55:32.166Z,20.80
2023-04-24T16:58:01.267Z,20.73
2023-04-24T17:00:30.046Z,20.66
2023-04-24T17:02:59.034Z,20.61
2023-04-24T17:05:28.310Z,20.57
2023-04-24T17:07:57.520Z,20.50
2023-04-24T17:10:26.356Z,20.44
2023-04-24T17:12:57.362Z,20.39
2023-04-24T17:15:26.431Z,20.33
2023-04-24T17:17:56.704Z,20.27
2023-04-24T17:20:26.996Z,20.20
2023-04-24T17:22:58.394Z,20.14
2023-04-24T17:25:27.305Z,20.05
2023-04-24T17:27:57.723Z,19.96
2023-04-24T17:30:26.470Z,19.82
2023-04-24T17:32:55.575Z,19.68
2023-04-24T17:35:24.274Z,19.45
2023-04-24T17:37:53.560Z,19.32
2023-04-24T17:40:22.391Z,19.19
2023-04-24T17:42:51.475Z,19.08
2023-04-24T17:45:21.744Z,19.01
2023-04-24T17:47:51.810Z,18.88
2023-04-24T17:50:20.792Z,18.79
2023-04-24T17:52:49.763Z,18.72
2023-04-24T17:55:18.555Z,18.64
2023-04-24T17:57:47.574Z,18.56
2023-04-24T18:00:17.660Z,18.55
2023-04-24T18:02:49.775Z,18.47
2023-04-24T18:05:19.026Z,18.52
2023-04-24T18:07:48.005Z,18.49
2023-04-24T18:10:16.933Z,18.46
2023-04-24T18:12:46.580Z,18.42
2023-04-24T18:15:15.805Z,18.41
2023-04-24T18:17:45.128Z,18.39
2023-04-24T18:20:17.852Z,18.42
2023-04-24T18:22:47.597Z,18.37
2023-04-24T18:25:17.775Z,18.32
2023-04-24T18:27:46.683Z,18.29
2023-04-24T18:30:15.457Z,18.27
2023-04-24T18:32:44.518Z,18.22
2023-04-24T18:35:14.699Z,18.20
2023-04-24T18:37:45.401Z,18.08
2023-04-24T18:40:15.404Z,18.00
2023-04-24T18:42:45.182Z,17.91
2023-04-24T18:45:15.309Z,17.88
2023-04-24T18:47:44.925Z,17.77
2023-04-24T18:50:15.650Z,17.71
2023-04-24T18:52:44.710Z,17.63
2023-04-24T18:55:13.399Z,17.56
2023-04-24T18:57:42.370Z,17.54
2023-04-24T19:00:12.518Z,17.47
2023-04-24T19:02:41.287Z,17.42
2023-04-24T19:05:12.112Z,17.34
2023-04-24T19:07:42.393Z,17.30
2023-04-24T19:10:11.997Z,17.28
2023-04-24T19:12:40.912Z,17.31
2023-04-24T19:15:11.965Z,17.29
2023-04-24T19:17:40.676Z,17.22
2023-04-24T19:20:10.467Z,17.20
2023-04-24T19:22:39.202Z,17.11
2023-04-24T19:25:10.531Z,17.09
2023-04-24T19:27:39.371Z,17.14
2023-04-24T19:30:10.188Z,17.16
2023-04-24T19:32:38.897Z,17.14
2023-04-24T19:35:08.631Z,17.14
2023-04-24T19:37:37.439Z,17.13
2023-04-24T19:40:09.957Z,17.18
2023-04-24T19:42:43.864Z,17.15
2023-04-24T19:45:14.152Z,16.92
2023-04-24T19:47:43.312Z,16.75
2023-04-24T19:50:12.766Z,16.66
2023-04-24T19:52:41.602Z,16.60
2023-04-24T19:55:12.079Z,16.55
2023-04-24T19:57:40.830Z,16.50
2023-04-24T20:00:11.485Z,16.48
2023-04-24T20:02:40.405Z,16.51
2023-04-24T20:05:10.534Z,16.51
2023-04-24T20:07:39.428Z,16.31
2023-04-24T20:10:11.665Z,16.45
2023-04-24T20:12:40.314Z,16.41
2023-04-24T20:15:11.007Z,16.39
2023-04-24T20:17:39.634Z,16.38
2023-04-24T20:20:10.407Z,16.41
2023-04-24T20:22:39.727Z,16.37
2023-04-24T20:25:13.051Z,16.29
2023-04-24T20:27:42.540Z,16.14
2023-04-24T20:30:13.914Z,16.09
2023-04-24T20:32:43.373Z,16.05
2023-04-24T20:35:13.063Z,15.94
2023-04-24T20:37:42.459Z,15.84
2023-04-24T20:40:14.300Z,15.79
2023-04-24T20:42:46.335Z,15.78
2023-04-24T20:45:15.349Z,15.74
2023-04-24T20:47:44.013Z,15.73
2023-04-24T20:50:13.179Z,15.71
2023-04-24T20:52:41.952Z,15.65
2023-04-24T20:55:12.932Z,15.57
2023-04-24T20:57:41.942Z,15.49
2023-04-24T21:00:12.953Z,15.46
2023-04-24T21:02:42.380Z,15.45
2023-04-24T21:05:11.682Z,15.36
2023-04-24T21:07:40.396Z,15.31
2023-04-24T21:10:13.327Z,15.23
2023-04-24T21:12:42.030Z,15.15
2023-04-24T21:15:11.872Z,15.07
2023-04-24T21:17:40.654Z,15.02
2023-04-24T21:20:11.239Z,14.99
2023-04-24T21:22:40.305Z,14.93
2023-04-24T21:25:10.280Z,14.91
2023-04-24T21:27:40.505Z,14.88
2023-04-24T21:30:11.310Z,14.86
2023-04-24T21:32:40.681Z,14.82
2023-04-24T21:35:10.770Z,14.76
2023-04-24T21:37:40.074Z,14.71
2023-04-24T21:40:11.654Z,14.61
2023-04-24T21:42:41.724Z,14.54
2023-04-24T21:45:12.476Z,14.52
2023-04-24T21:47:41.157Z,14.49
2023-04-24T21:50:11.792Z,14.43
2023-04-24T21:52:40.657Z,14.42
2023-04-24T21:55:10.469Z,14.38
2023-04-24T21:57:39.310Z,14.33
2023-04-24T22:00:12.326Z,14.31
2023-04-24T22:02:43.080Z,14.26
2023-04-24T22:05:15.728Z,14.22
2023-04-24T22:07:47.229Z,14.22
2023-04-24T22:10:19.071Z,14.22
2023-04-24T22:12:48.389Z,14.18
2023-04-24T22:15:18.703Z,14.18
2023-04-24T22:17:48.931Z,14.16
2023-04-24T22:20:18.060Z,14.17
2023-04-24T22:22:47.122Z,14.16
2023-04-24T22:25:16.196Z,14.16
2023-04-24T22:27:44.962Z,14.13
2023-04-24T22:30:14.393Z,14.13
2023-04-24T22:32:44.676Z,14.13
2023-04-24T22:35:13.603Z,14.09
2023-04-24T22:37:42.261Z,14.06
2023-04-24T22:40:12.261Z,14.06
2023-04-24T22:42:41.218Z,14.05
2023-04-24T22:45:13.412Z,14.00
2023-04-24T22:47:42.532Z,13.97
2023-04-24T22:50:12.988Z,13.97
2023-04-24T22:52:43.885Z,14.00
2023-04-24T22:55:13.112Z,14.03
2023-04-24T22:57:42.232Z,14.04
2023-04-24T23:00:14.459Z,14.03
2023-04-24T23:02:44.346Z,14.03
2023-04-24T23:05:14.860Z,14.06
2023-04-24T23:07:44.161Z,14.07
2023-04-24T23:10:13.230Z,14.01
2023-04-24T23:12:41.906Z,14.00
2023-04-24T23:15:12.661Z,13.96
2023-04-24T23:17:41.511Z,13.95
2023-04-24T23:20:14.775Z,13.93
2023-04-24T23:22:43.774Z,13.91
2023-04-24T23:25:12.700Z,13.91
2023-04-24T23:27:41.371Z,13.92
2023-04-24T23:30:11.132Z,13.91
2023-04-24T23:32:39.969Z,13.89
2023-04-24T23:35:09.830Z,13.90
2023-04-24T23:37:39.991Z,13.87
2023-04-24T23:40:10.883Z,13.90
2023-04-24T23:42:39.757Z,13.87
2023-04-24T23:45:11.605Z,13.87
2023-04-24T23:47:41.129Z,13.79
2023-04-24T23:50:11.613Z,13.85
2023-04-24T23:52:41.781Z,13.83
2023-04-24T23:55:11.712Z,13.88
2023-04-24T23:57:40.442Z,13.87
